KRWI/RWI METAR and TAF weather

Enter ICAO airport designator
Station Type Date Time Source
KRWI METAR 2023/02/05 13:53 UTC NOAA

KRWI 051353Z AUTO 21004KT 10SM FEW038 BKN080 02/M05 A3039 RMK AO2 SLP293 T00221050


Station Type Date Time Source
KRWI Decoded METAR 2023/02/05 13:53 UTC NOAA

ROCKY MOUNT-WILSON AIRPORT, NC, United States (KRWI) 35-51N 077-54W 47M
Feb 05, 2023 - 08:53 AM EST / 2023.02.05 1353 UTC
Wind: from the SSW (210 degrees) at 5 MPH (4 KT):0
Visibility: 10 mile(s):0
Sky conditions: mostly cloudy
Temperature: 36.0 F (2.2 C)
Dew Point: 23.0 F (-5.0 C)
Relative Humidity: 58%
Pressure (altimeter): 30.39 in. Hg (1029 hPa)
ob: KRWI 051353Z AUTO 21004KT 10SM FEW038 BKN080 02/M05 A3039 RMK AO2 SLP293 T00221050
cycle: 14

Station Type Date Time Source
KRWI TAF 2023/02/05 12:24 UTC NOAA

TAF KRWI 051121Z 0512/0612 21003KT P6SM SCT050 BKN250
FM051600 24005KT P6SM OVC050
FM051900 27005KT 5SM -RA BR OVC015
FM060300 VRB03KT 1 1/2SM BR SCT003 BKN250

Example: see airport list